Saint-Romuald, Canada
Current Conditions -  °F | °C
As of 1:00 PM on Sunday 25 Jan 2015 (Local Time) from CYQB Reporting Station
Scattered Clouds Scattered Clouds  
Wind Chill: -14°   Ceiling: Unl
Heat Index:   Visibility: 20mi
Dew Point: -2°   Wind: 22mph
Humidity: 67%   Direction: 260°W
Pressure: 29.62"   Gusts: 31mph
Location:  46.75°N, 71.23°W
Report Text: CYQB 251800Z 26019G27KT 20SM SCT028 SCT190 M14/M19 A2962 RMK SC3CI1 SLP036
Loading
Personal Weather Stations






























Interactive Weather Map New forecast layout! Learn more

10-Day Weather Forecast

Advertisements
Track Severe Weather on mobile